Weather observations for the past three days for
Richard I. Bong Airport
Imperial (Metric)
Date Time (cdt) Wind (mph) Vis. (mi.) Weather Sky Cond. Temperature (ºF) Relative Humidity Wind Chill (°F) Heat Index (°F) Pressure Precipitation (in)
Air Dwpt 6 hour altimeter (in) sea level (mb) 1 hr 3 hr 6 hr
Max. Min.
07 01:15 SW 3 10.00 Overcast BKN060 OVC070 37.9 25.5 61% 29.91 0.0
07 00:55 SW 3 10.00 Overcast OVC070 38.3 25.3 42.8 38.3 60% 29.92 0.0
07 00:35 SW 3 10.00 Overcast OVC070 38.3 25.2 59% 29.92 0.0
07 00:15 SW 3 10.00 Overcast OVC070 38.7 24.8 58% 29.92 0.0
06 23:55 SW 3 10.00 Overcast OVC070 38.5 24.8 58% 29.93 0.0
06 23:35 SW 3 10.00 Overcast OVC070 39.2 24.8 56% 29.93 0.0
06 23:15 SW 5 10.00 Overcast OVC070 39.2 25 57% 36 29.93 0.0
06 22:55 SW 3 10.00 Overcast OVC060 39.7 25.2 56% 29.94 0.0
06 22:15 SW 3 10.00 Overcast OVC060 40.1 25.3 56% 29.94 0.0
06 21:55 Calm 10.00 Overcast OVC060 40.3 25.2 55% 29.95 0.0
06 21:35 W 5 10.00 Overcast OVC060 40.6 24.8 53% 38 29.94 0.0
06 21:15 W 6 10.00 Overcast OVC060 41 24.8 53% 38 29.94 0.0
06 20:55 W 8 10.00 Overcast OVC060 41.5 24.6 51% 37 29.94 0.0
06 20:35 W 10 10.00 Overcast OVC060 41.4 25.2 53% 36 29.94 0.0
06 20:15 W 7 10.00 Overcast OVC060 41.5 25.5 53% 38 29.94 0.0
06 19:55 W 7 10.00 Overcast OVC060 41.9 25.7 53% 38 29.94 0.0
06 19:35 W 9 10.00 Overcast OVC060 42.1 25.5 52% 37 29.94 0.0
06 19:15 W 10 10.00 Overcast OVC060 42.4 25.2 50% 37 29.94 0.0
06 18:55 W 10 G 16 10.00 Overcast SCT049 BKN065 OVC070 43 25.2 45.3 42.1 49% 38 29.94 0.0
06 18:35 W 10 10.00 Overcast SCT049 BKN055 OVC065 43.7 25 48% 39 29.94 0.0
06 17:55 W 13 G 17 10.00 Overcast BKN050 OVC065 43.9 23.2 44% 38 29.94 0.0
06 17:35 W 12 10.00 Overcast BKN055 OVC065 44.4 23 43% 39 29.94 0.0
06 17:15 SW 13 10.00 Overcast OVC050 44.1 22.8 43% 38 29.94 0.0
06 16:35 W 9 10.00 Overcast OVC050 44.2 23.2 43% 40 29.94 0.0
06 16:15 W 8 10.00 Overcast OVC050 44.6 23.5 43% 41 29.94 0.0
06 15:55 W 12 G 16 10.00 Overcast OVC050 44.2 23.4 44% 39 29.94 0.0
06 15:35 W 14 10.00 Overcast OVC050 44.8 23.4 43% 39 29.94 0.0
06 15:15 W 13 G 17 10.00 Overcast BKN050 OVC060 44.2 23.7 44% 39 29.95 0.0
06 14:55 NW 12 G 17 10.00 Overcast BKN047 OVC060 44.6 24.4 45% 39 29.95 0.0
06 14:35 W 10 10.00 Overcast BKN047 OVC060 45.3 24.6 44% 41 29.95 0.0
06 14:15 W 12 G 20 10.00 Overcast OVC045 43.3 24.3 47% 38 29.96 0.0
06 13:55 W 10 G 17 10.00 Overcast OVC045 43.3 24.8 48% 38 29.96 0.0
06 13:35 W 13 G 17 10.00 Overcast BKN045 OVC055 42.8 24.6 49% 37 29.96 0.0
06 13:15 W 10 10.00 Overcast BKN049 OVC055 43.3 23.5 46% 38 29.96 0.0
06 12:55 W 13 G 18 10.00 Overcast OVC047 42.1 23.2 43 31.8 47% 36 29.96 0.0
06 12:35 W 7 10.00 Overcast BKN048 OVC055 43 22.8 45% 39 29.96 0.0
06 12:15 W 9 G 17 10.00 Overcast OVC046 42.3 22.5 45% 37 29.96 0.0
06 11:55 W 12 G 17 10.00 Overcast OVC048 41.9 22.5 46% 36 29.96 0.0
06 11:35 W 10 10.00 Overcast OVC046 41.5 22.3 46% 36 29.97 0.0
06 11:15 W 13 G 16 10.00 Overcast OVC046 41.5 22.3 46% 35 29.97 0.0
06 10:55 W 12 G 16 10.00 Overcast OVC044 40.8 22.5 48% 35 29.97 0.0
06 10:35 W 8 10.00 Overcast OVC044 40.8 22.1 47% 36 29.97 0.0
06 10:15 NW 9 G 20 10.00 Overcast OVC042 40.3 22.3 49% 35 29.97 0.0
06 09:55 W 13 10.00 Overcast OVC042 39.6 21.6 49% 33 29.97 0.0
06 09:35 W 9 G 18 10.00 Overcast OVC039 38.7 21.9 51% 33 29.98 0.0
06 09:15 NW 14 G 20 10.00 Overcast OVC039 38.8 21.7 50% 31 29.98 0.0
06 08:55 NW 8 G 16 10.00 Overcast OVC039 38.7 21.7 51% 34 29.98 0.0
06 08:35 W 15 G 23 10.00 Mostly Cloudy BKN039 39.6 21.7 49% 32 29.97 0.0
06 08:15 NW 16 G 21 10.00 Fair CLR 38.5 20.7 49% 30 29.97 0.0
06 07:55 W 12 10.00 Fair CLR 37.6 22.1 54% 31 29.97 0.0
06 07:35 W 7 10.00 Fair CLR 36.1 22.6 58% 31 29.97 0.0
06 06:55 W 6 10.00 Fair CLR 31.6 21.9 37.4 29.8 67% 27 29.96 0.0
06 06:35 W 6 10.00 Partly Cloudy SCT060 30.7 21.7 69% 26 29.95 0.0
06 06:15 W 5 10.00 Fair CLR 30.2 21.6 70% 26 29.94 0.0
06 05:55 W 7 10.00 Fair CLR 30.4 21.2 69% 24 29.94 0.0
06 05:35 NW 7 10.00 Fair CLR 30.2 21.2 69% 24 29.94 0.0
06 05:15 NW 7 10.00 Fair CLR 30.2 21 69% 24 29.94 0.0
06 04:55 NW 6 10.00 Fair CLR 31.1 21 66% 26 29.94 0.0
06 04:35 NW 7 10.00 Fair CLR 32 21.2 64% 26 29.94 0.0
06 04:15 NW 9 10.00 Fair CLR 32.2 21.7 65% 25 29.94 0.0
06 03:55 NW 6 10.00 Fair CLR 32 21.6 65% 27 29.93 0.0
06 03:35 NW 8 10.00 Fair CLR 33.8 21.9 62% 28 29.93 0.0
06 03:15 N 6 10.00 Mostly Cloudy SCT041 SCT048 BKN055 35.2 21.9 58% 31 29.93 0.0
06 02:55 NW 7 10.00 Overcast OVC044 36.7 21.9 55% 32 29.92 0.0
06 02:35 W 7 10.00 Overcast OVC044 37 20.8 52% 32 29.92 0.0
06 02:15 W 6 10.00 Overcast OVC044 36.9 20.7 52% 33 29.92 0.0
06 01:55 NW 10 G 17 10.00 Overcast OVC044 37.2 21.2 52% 31 29.92 0.0
06 01:35 NW 8 10.00 Overcast OVC046 37.2 20.8 52% 32 29.92 0.0
06 01:15 NW 9 10.00 Overcast OVC046 37.4 21 52% 31 29.92 0.0
06 00:55 W 6 10.00 Overcast OVC046 37.4 21.6 42.1 37.4 53% 33 29.92 0.0
06 00:35 W 8 10.00 Overcast OVC046 37.6 21.2 52% 32 29.91 0.0
06 00:15 W 6 10.00 Overcast OVC046 37.6 21.4 52% 34 29.91 0.0
05 23:55 NW 10 10.00 Overcast OVC046 37.8 21.4 52% 31 29.91 0.0
05 23:35 W 9 10.00 Overcast OVC046 37.8 21.4 52% 32 29.91 0.0
05 23:15 W 6 10.00 Overcast OVC046 37.8 21.6 52% 34 29.91 0.0
05 22:55 NW 8 10.00 Overcast OVC046 38.1 21.4 51% 33 29.91 0.0
05 22:35 NW 10 10.00 Overcast OVC046 38.1 21.2 51% 32 29.91 0.0
05 22:15 NW 7 10.00 Overcast OVC048 38.3 21.2 50% 34 29.91 0.0
05 21:55 NW 9 10.00 Overcast OVC048 38.5 20.3 48% 33 29.91 0.0
05 21:35 NW 9 10.00 Overcast OVC050 38.7 20.8 49% 33 29.9 0.0
05 21:15 NW 14 G 20 10.00 Overcast OVC050 39 21 48% 32 29.89 0.0
05 20:55 NW 12 G 17 10.00 Overcast OVC050 39.6 21 47% 33 29.88 0.0
05 20:35 NW 13 G 20 10.00 Overcast OVC050 39.9 21 47% 33 29.87 0.0
05 20:15 NW 12 G 16 10.00 Overcast OVC050 40.3 21.4 47% 34 29.87 0.0
05 19:55 NW 9 G 16 10.00 Overcast OVC050 40.6 21.4 46% 35 29.86 0.0
05 19:35 W 12 10.00 Overcast OVC050 41.2 21.2 45% 35 29.85 0.0
05 19:15 W 13 10.00 Overcast OVC050 41.5 21.4 45% 35 29.85 0.0
05 18:55 NW 14 G 21 10.00 Overcast OVC050 42.1 21.4 45.5 41.4 44% 35 29.84 0.0
05 18:35 W 12 10.00 Overcast OVC050 43 21.2 42% 37 29.84 0.0
05 18:15 W 13 10.00 Overcast OVC050 43 21.4 42% 37 29.84 0.0
05 17:55 W 10 G 23 10.00 Overcast OVC050 43.7 21.7 42% 39 29.84 0.0
05 17:35 NW 14 G 21 10.00 Overcast OVC050 44.4 21.9 41% 38 29.83 0.0
05 17:15 W 14 G 18 10.00 Overcast OVC050 44.8 22.3 41% 39 29.83 0.0
05 16:55 NW 17 G 23 10.00 Overcast OVC050 44.6 21.9 41% 38 29.82 0.0
05 16:35 W 13 G 20 10.00 Overcast OVC050 44.1 21.9 41% 38 29.83 0.0
05 16:15 W 17 G 23 10.00 Overcast OVC048 44.1 21.9 41% 37 29.82 0.0
05 15:55 W 12 G 20 10.00 Overcast OVC048 44.1 22.5 42% 39 29.82 0.0
05 15:35 W 16 G 21 10.00 Overcast OVC048 43.7 23.2 44% 37 29.82 0.0
05 15:15 W 15 G 21 10.00 Overcast BKN048 OVC050 43.7 22.8 44% 37 29.83 0.0
05 14:55 W 14 G 23 10.00 Overcast OVC050 43.9 22.8 43% 38 29.82 0.0
05 14:35 W 15 G 20 10.00 Overcast OVC050 43.2 22.1 43% 36 29.82 0.0
05 14:15 W 13 G 18 10.00 Overcast OVC050 43.7 22.3 43% 38 29.82 0.0
05 13:55 W 14 G 17 10.00 Overcast BKN048 OVC060 43.2 22.6 44% 37 29.82 0.0
05 13:35 NW 13 10.00 Overcast OVC050 42.6 21.7 43% 37 29.82 0.0
05 13:15 W 12 G 18 10.00 Overcast OVC050 42.8 22.1 44% 37 29.81 0.0
05 12:55 W 10 10.00 Overcast OVC048 41.2 21.6 42.4 33.8 46% 36 29.82 0.0
05 12:35 W 9 10.00 Overcast OVC048 41.9 21.4 44% 37 29.81 0.0
05 11:55 NW 10 G 17 10.00 Overcast OVC048 41.5 21 44% 36 29.81 0.0
05 11:35 NW 14 G 17 10.00 Overcast OVC045 40.5 21.4 47% 33 29.81 0.0
05 11:15 W 10 G 21 10.00 Overcast OVC045 39.6 20.8 47% 34 29.81 0.0
05 10:55 NW 15 G 20 10.00 Overcast OVC043 39 20.3 47% 31 29.81 0.0
05 10:35 W 8 10.00 Overcast OVC045 37.2 20.3 50% 32 29.81 0.0
05 10:15 NW 13 G 18 10.00 Overcast OVC045 36.9 19.6 50% 29 29.8 0.0
05 09:55 NW 14 G 20 10.00 Overcast BKN043 OVC050 36.1 19.8 51% 28 29.79 0.0
05 09:35 NW 10 10.00 Overcast SCT040 OVC050 35.8 20.5 54% 29 29.79 0.0
05 09:15 NW 14 G 18 10.00 Overcast SCT040 OVC048 36 20.1 53% 28 29.78 0.0
05 08:55 W 10 G 18 10.00 Overcast BKN040 OVC050 35.8 20.3 53% 29 29.77 0.0
05 08:35 NW 10 G 17 10.00 Overcast BKN040 BKN049 OVC075 36.1 20.5 53% 29 29.77 0.0
05 08:15 NW 10 10.00 Overcast SCT040 SCT047 OVC075 35.8 21.4 56% 29 29.76 0.0
05 07:35 W 8 10.00 Mostly Cloudy SCT034 BKN075 35.1 21.7 58% 29 29.75 0.0
05 07:15 W 8 10.00 Mostly Cloudy BKN032 34 21.6 60% 28 29.75 0.0
05 06:55 W 10 G 16 10.00 Mostly Cloudy BKN032 34 21.2 41 32.7 60% 27 29.74 0.0
05 06:15 W 9 10.00 Partly Cloudy SCT034 32.7 23 67% 26 29.72 0.0
05 05:55 W 9 G 16 10.00 Partly Cloudy SCT036 32.9 23.4 68% 26 29.72 0.0
05 05:35 W 12 10.00 Fair CLR 33.4 23.4 67% 26 29.71 0.0
05 05:15 W 16 G 22 10.00 Partly Cloudy SCT039 33.6 23.5 67% 24 29.71 0.0
05 04:55 W 14 10.00 Partly Cloudy SCT046 33.6 26.1 74% 25 29.7 0.0
05 04:35 W 9 10.00 Overcast SCT017 BKN041 OVC048 34.3 30 84% 28 29.7 0.0
05 04:15 NW 12 7.00 Drizzle BKN019 OVC029 35.1 30 82% 28 29.69 0.0
05 03:55 W 7 10.00 Overcast SCT021 OVC029 36.7 29.7 76% 32 29.68 0.0
05 03:35 W 9 10.00 Mostly Cloudy SCT021 BKN029 BKN049 35.6 28.9 77% 29 29.67 0.0
05 03:15 W 6 G 10 10.00 Mostly Cloudy SCT029 SCT034 BKN046 36.5 28.8 74% 32 29.67 0.0
05 02:55 NW 13 G 17 10.00 Mostly Cloudy SCT040 BKN048 37 28 70% 30 29.67 0.0
05 02:35 NW 16 G 24 10.00 Mostly Cloudy SCT040 BKN050 38.7 26.2 61% 30 29.67 0.0
05 02:15 W 12 G 16 10.00 Fair CLR 37.8 25.7 62% 31 29.66 0.0
05 01:55 NW 8 10.00 Fair CLR 37.6 26.1 63% 32 29.66 0.0
05 01:35 W 7 10.00 Partly Cloudy SCT060 37.6 25.7 62% 33 29.66 0.0
05 01:15 NW 6 10.00 Mostly Cloudy SCT060 BKN075 39.7 25.7 57% 36 29.66 0.0
05 00:55 NW 10 10.00 Overcast SCT050 OVC075 40.6 24.8 46.4 40.5 53% 35 29.66 0.0
05 00:35 W 7 10.00 Overcast OVC075 41 23.9 51% 37 29.66 0.0
05 00:15 W 12 10.00 Partly Cloudy SCT075 41 23 49% 35 29.65 0.0
04 23:55 W 10 G 17 10.00 Fair CLR 41 23 49% 35 29.65 0.0
04 23:35 W 9 G 20 10.00 Partly Cloudy SCT075 42.1 23 47% 37 29.64 0.0
04 23:15 W 10 G 18 10.00 Overcast SCT065 OVC075 43.3 23.7 46% 38 29.64 0.0
04 22:55 W 12 10.00 Overcast SCT065 OVC085 43.3 23 45% 38 29.64 0.0
04 22:35 W 14 G 21 10.00 Overcast OVC085 44.1 23 43% 38 29.64 0.0
04 22:15 W 10 G 16 10.00 Overcast OVC085 44.4 22.8 42% 40 29.64 0.0
04 21:55 W 10 G 16 10.00 Overcast OVC085 44.4 22.5 42% 40 29.63 0.0
04 21:35 W 15 G 18 10.00 Overcast OVC085 44.6 21.9 41% 38 29.62 0.0
04 21:15 W 13 G 18 10.00 Overcast OVC085 44.4 22.1 41% 39 29.62 0.0
04 20:55 W 13 G 23 10.00 Overcast SCT065 OVC085 44.6 21.6 40% 39 29.61 0.0
04 20:35 W 14 G 18 10.00 Overcast SCT065 OVC075 44.4 21.6 40% 38 29.6 0.0
04 20:15 W 13 G 20 10.00 Overcast SCT065 OVC075 45.5 21.7 39% 40 29.6 0.0
04 19:55 W 13 G 26 10.00 Overcast OVC075 45.7 21.9 39% 40 29.59 0.0
04 19:35 W 16 G 22 10.00 Overcast OVC075 45.9 21.6 38% 40 29.59 0.0
04 19:15 W 15 G 26 10.00 Overcast OVC065 46 22.5 39% 40 29.58 0.0
04 18:55 W 20 G 26 10.00 Mostly Cloudy BKN065 BKN075 46.2 22.6 54.9 45.7 39% 39 29.58 0.0
04 18:35 W 14 G 25 10.00 Overcast BKN055 OVC065 47.1 24.6 41% 42 29.59 0.0
04 18:15 W 15 G 18 10.00 Overcast OVC060 46.2 26.2 46% 40 29.58 0.0
04 17:55 W 14 G 28 10.00 Overcast OVC060 46.8 25.9 44% 41 29.57 0.0
04 17:35 W 21 G 26 10.00 Overcast and Breezy OVC050 46.8 26.1 44% 40 29.57 0.0
04 17:15 W 16 G 30 10.00 Overcast SCT050 OVC060 47.7 26.8 44% 42 29.56 0.0
04 16:55 W 23 G 31 10.00 Overcast and Breezy BKN050 OVC060 48.6 27.3 44% 42 29.54 0.0
04 16:35 W 21 G 28 10.00 Overcast and Breezy SCT060 OVC065 49.1 28.6 45% 43 29.53 0.0
04 16:15 W 20 G 26 10.00 Overcast BKN050 OVC070 49.5 27.9 43% 43 29.52 0.0
04 15:55 W 17 G 23 10.00 Overcast SCT050 OVC060 50.5 28.8 43% 29.52 0.0
04 15:35 W 16 G 28 10.00 Overcast OVC060 50.2 28.4 43% 29.51 0.0
04 15:15 W 16 G 26 10.00 Overcast OVC060 50.9 28 41% 29.51 0.0
04 14:55 W 15 G 26 10.00 Overcast OVC060 51.4 28 41% 29.5 0.0
04 14:35 W 16 G 30 10.00 Overcast OVC060 52 28.8 41% 29.49 0.0
04 14:15 NW 24 G 33 10.00 Overcast and Breezy BKN050 OVC065 52.9 28.6 39% 29.48 0.0
04 13:55 W 20 G 29 10.00 Overcast OVC055 51.8 29.5 42% 29.47 0.0
04 13:35 NW 20 G 29 10.00 Mostly Cloudy BKN060 52.7 29.1 40% 29.46 0.0
04 13:15 W 23 G 31 10.00 Mostly Cloudy and Breezy BKN060 54.1 30 40% 29.45 0.0
04 12:55 W 18 G 30 10.00 Overcast OVC060 51.8 29.8 55.9 51.1 43% 29.45 0.0
04 12:35 W 14 G 30 10.00 Overcast OVC060 52.3 31.3 45% 29.44 0.0
04 12:15 W 18 G 29 10.00 Overcast BKN048 OVC060 51.1 31.3 47% 29.44 0.0
04 11:55 W 22 G 29 10.00 Overcast and Breezy OVC048 51.3 31.8 48% 29.43 0.0
04 11:35 W 23 G 29 10.00 Overcast and Breezy BKN048 OVC055 51.6 31.5 46% 29.42 0.0
04 11:15 W 21 G 32 10.00 Overcast and Breezy BKN048 OVC055 53.4 32.4 45% 29.41 0.0
04 10:55 NW 18 G 29 10.00 Overcast OVC046 52.9 32.9 47% 29.4 0.0
04 10:35 W 18 G 25 10.00 Overcast OVC048 52.9 32.2 45% 29.39 0.0
04 10:15 W 22 G 31 10.00 Overcast and Breezy OVC050 53.4 31.5 43% 29.37 0.0
04 09:55 W 20 G 28 10.00 Overcast OVC048 53.1 33.1 47% 29.36 0.0
04 09:35 W 21 G 33 10.00 Overcast and Breezy BKN047 OVC050 53.8 33.1 46% 29.36 0.0
04 09:15 W 13 G 22 10.00 Mostly Cloudy BKN050 55.8 36.9 49% 29.35 0.0
04 08:55 W 17 G 30 10.00 Overcast SCT043 BKN049 OVC110 52.7 36.1 54% 29.35 0.0
04 08:35 W 20 G 26 10.00 Overcast SCT041 OVC110 53.1 36.7 54% 29.34 0.0
04 08:15 W 14 G 20 10.00 Overcast SCT039 SCT065 OVC110 53.6 38.3 56% 29.32 0.0
04 07:55 W 10 10.00 Overcast SCT039 SCT070 OVC100 53.1 38.3 57% 29.31 0.0
04 07:35 W 13 G 22 10.00 Overcast SCT039 BKN060 OVC090 53.6 38.5 57% 29.32 0.0
04 07:15 W 16 G 22 10.00 Overcast OVC060 54.1 38.5 56% 29.31 0.0
04 06:55 W 14 G 22 10.00 Mostly Cloudy SCT065 BKN120 54.5 38.7 60.8 54 55% 29.3 0.0
04 06:35 NW 15 G 21 10.00 Partly Cloudy SCT120 54 39.7 59% 29.29 0.0
04 06:15 NW 20 G 26 10.00 Fair CLR 55 40.1 57% 29.28 0.0
04 05:55 W 18 G 26 10.00 Fair CLR 59.9 29.8 32% 29.24 0.0
04 05:35 SW 14 G 23 10.00 Partly Cloudy SCT120 59.9 29.3 31% 29.23 0.0
04 05:15 SW 14 G 21 10.00 Partly Cloudy SCT110 59.9 29.3 31% 29.23 0.0
04 04:55 SW 13 G 18 10.00 Overcast SCT090 OVC110 60.1 29.5 31% 29.24 0.0
04 04:35 SW 13 G 17 10.00 Overcast BKN090 OVC110 60.1 30 32% 29.25 0.0
04 04:15 SW 15 G 18 10.00 Mostly Cloudy BKN110 60.1 29.5 31% 29.26 0.0
04 03:55 SW 13 G 21 10.00 Partly Cloudy SCT100 59.9 29.8 32% 29.28 0.0
04 03:35 SW 13 G 22 10.00 Fair CLR 59.9 29.3 31% 29.29 0.0
04 03:15 SW 16 G 22 10.00 Fair CLR 60.1 29.3 31% 29.29 0.0
04 02:55 SW 15 G 23 10.00 Fair CLR 60.6 29.5 31% 29.31 0.0
04 02:35 SW 17 G 24 10.00 Fair CLR 60.4 29.5 31% 29.32 0.0
04 02:15 SW 14 G 20 10.00 Fair CLR 60.3 29.8 32% 29.34 0.0
04 01:55 SW 13 G 20 10.00 Fair CLR 60.3 30 32% 29.35 0.0
04 01:35 SW 13 10.00 Fair CLR 59.7 29.8 32% 29.37 0.0
Date Time (cdt) Wind (mph) Vis. (mi.) Weather Sky Cond. Air Dwpt Max. Min. Relative Humidity Wind Chill (°F) Heat Index (°F) altimeter (in) sea level (mb) 1 hr 3 hr 6 hr
6 hour
Temperature (ºF) Pressure Precipitation (in)